sensor_id;sensor_type;location;lat;lon;timestamp;P1;durP1;ratioP1;P2;durP2;ratioP2
12808;SDS011;6469;50.796;8.986;2022-11-15T00:00:19;7.13;;;4.20;;
12808;SDS011;6469;50.796;8.986;2022-11-15T00:10:19;4.83;;;4.00;;
12808;SDS011;6469;50.796;8.986;2022-11-15T00:20:20;5.37;;;3.90;;
12808;SDS011;6469;50.796;8.986;2022-11-15T00:30:20;6.30;;;3.77;;
12808;SDS011;6469;50.796;8.986;2022-11-15T00:40:20;5.20;;;3.90;;
12808;SDS011;6469;50.796;8.986;2022-11-15T00:50:20;5.50;;;4.27;;
12808;SDS011;6469;50.796;8.986;2022-11-15T01:00:20;4.23;;;3.50;;
12808;SDS011;6469;50.796;8.986;2022-11-15T01:10:21;4.43;;;3.60;;
12808;SDS011;6469;50.796;8.986;2022-11-15T01:20:21;5.30;;;4.13;;
12808;SDS011;6469;50.796;8.986;2022-11-15T01:30:21;5.00;;;3.70;;
12808;SDS011;6469;50.796;8.986;2022-11-15T01:40:21;5.07;;;3.90;;
12808;SDS011;6469;50.796;8.986;2022-11-15T01:50:23;5.43;;;3.83;;
12808;SDS011;6469;50.796;8.986;2022-11-15T02:00:25;4.50;;;3.50;;
12808;SDS011;6469;50.796;8.986;2022-11-15T02:10:25;4.00;;;3.40;;
12808;SDS011;6469;50.796;8.986;2022-11-15T02:20:39;4.17;;;3.33;;
12808;SDS011;6469;50.796;8.986;2022-11-15T02:30:41;4.63;;;3.23;;
12808;SDS011;6469;50.796;8.986;2022-11-15T02:40:45;4.37;;;3.20;;
12808;SDS011;6469;50.796;8.986;2022-11-15T02:50:48;4.13;;;3.23;;
12808;SDS011;6469;50.796;8.986;2022-11-15T03:11:07;4.37;;;3.00;;
12808;SDS011;6469;50.796;8.986;2022-11-15T03:21:08;4.97;;;3.20;;
12808;SDS011;6469;50.796;8.986;2022-11-15T03:31:10;3.60;;;3.20;;
12808;SDS011;6469;50.796;8.986;2022-11-15T03:41:41;4.60;;;3.17;;
12808;SDS011;6469;50.796;8.986;2022-11-15T03:51:43;3.97;;;3.00;;
12808;SDS011;6469;50.796;8.986;2022-11-15T04:01:43;4.40;;;3.20;;
12808;SDS011;6469;50.796;8.986;2022-11-15T04:11:43;3.57;;;2.90;;
12808;SDS011;6469;50.796;8.986;2022-11-15T04:21:44;5.93;;;3.00;;
12808;SDS011;6469;50.796;8.986;2022-11-15T04:32:03;2.90;;;2.60;;
12808;SDS011;6469;50.796;8.986;2022-11-15T04:42:04;3.13;;;2.80;;
12808;SDS011;6469;50.796;8.986;2022-11-15T04:52:04;4.03;;;2.30;;
12808;SDS011;6469;50.796;8.986;2022-11-15T05:02:04;3.07;;;2.40;;
12808;SDS011;6469;50.796;8.986;2022-11-15T05:12:04;3.03;;;2.50;;
12808;SDS011;6469;50.796;8.986;2022-11-15T05:22:04;3.20;;;1.93;;
12808;SDS011;6469;50.796;8.986;2022-11-15T05:32:05;3.00;;;2.47;;
12808;SDS011;6469;50.796;8.986;2022-11-15T05:42:12;3.53;;;2.17;;
12808;SDS011;6469;50.796;8.986;2022-11-15T05:52:13;2.73;;;2.20;;
12808;SDS011;6469;50.796;8.986;2022-11-15T06:02:15;4.33;;;2.20;;
12808;SDS011;6469;50.796;8.986;2022-11-15T06:12:15;5.03;;;2.20;;
12808;SDS011;6469;50.796;8.986;2022-11-15T06:22:15;5.03;;;2.60;;
12808;SDS011;6469;50.796;8.986;2022-11-15T06:32:15;3.13;;;2.30;;
12808;SDS011;6469;50.796;8.986;2022-11-15T06:42:15;5.30;;;2.30;;
12808;SDS011;6469;50.796;8.986;2022-11-15T06:52:15;4.73;;;2.20;;
12808;SDS011;6469;50.796;8.986;2022-11-15T07:02:18;4.90;;;2.13;;
12808;SDS011;6469;50.796;8.986;2022-11-15T07:12:19;8.37;;;2.70;;
12808;SDS011;6469;50.796;8.986;2022-11-15T07:22:19;4.93;;;2.37;;
12808;SDS011;6469;50.796;8.986;2022-11-15T07:32:19;8.03;;;2.30;;
12808;SDS011;6469;50.796;8.986;2022-11-15T07:42:20;2.90;;;2.10;;
12808;SDS011;6469;50.796;8.986;2022-11-15T07:52:38;3.70;;;2.50;;
12808;SDS011;6469;50.796;8.986;2022-11-15T08:02:39;4.47;;;2.30;;
12808;SDS011;6469;50.796;8.986;2022-11-15T08:12:39;4.07;;;2.20;;
12808;SDS011;6469;50.796;8.986;2022-11-15T08:22:39;3.37;;;2.07;;
12808;SDS011;6469;50.796;8.986;2022-11-15T08:32:39;4.77;;;2.30;;
12808;SDS011;6469;50.796;8.986;2022-11-15T08:42:40;3.37;;;1.90;;
12808;SDS011;6469;50.796;8.986;2022-11-15T08:52:40;3.33;;;2.27;;
12808;SDS011;6469;50.796;8.986;2022-11-15T09:02:40;2.87;;;1.97;;
12808;SDS011;6469;50.796;8.986;2022-11-15T09:12:40;4.40;;;2.00;;
12808;SDS011;6469;50.796;8.986;2022-11-15T09:22:40;6.13;;;2.40;;
12808;SDS011;6469;50.796;8.986;2022-11-15T09:32:41;2.70;;;1.80;;
12808;SDS011;6469;50.796;8.986;2022-11-15T09:52:59;3.00;;;2.03;;
12808;SDS011;6469;50.796;8.986;2022-11-15T10:13:30;3.23;;;1.80;;
12808;SDS011;6469;50.796;8.986;2022-11-15T10:23:31;1.93;;;1.57;;
12808;SDS011;6469;50.796;8.986;2022-11-15T10:33:32;3.83;;;1.77;;
12808;SDS011;6469;50.796;8.986;2022-11-15T10:43:33;4.73;;;2.00;;
12808;SDS011;6469;50.796;8.986;2022-11-15T10:53:38;4.23;;;1.83;;
12808;SDS011;6469;50.796;8.986;2022-11-15T11:03:39;3.30;;;1.70;;
12808;SDS011;6469;50.796;8.986;2022-11-15T11:13:39;2.67;;;2.07;;
12808;SDS011;6469;50.796;8.986;2022-11-15T11:33:45;3.03;;;1.77;;
12808;SDS011;6469;50.796;8.986;2022-11-15T11:43:53;1.73;;;1.40;;
12808;SDS011;6469;50.796;8.986;2022-11-15T11:53:57;2.67;;;1.47;;
12808;SDS011;6469;50.796;8.986;2022-11-15T12:14:03;2.43;;;1.53;;
12808;SDS011;6469;50.796;8.986;2022-11-15T12:24:12;2.87;;;1.53;;
12808;SDS011;6469;50.796;8.986;2022-11-15T12:45:22;5.80;;;1.77;;
12808;SDS011;6469;50.796;8.986;2022-11-15T12:54:56;6.73;;;2.00;;
12808;SDS011;6469;50.796;8.986;2022-11-15T13:25:27;6.70;;;2.30;;
12808;SDS011;6469;50.796;8.986;2022-11-15T13:35:30;5.23;;;2.00;;
12808;SDS011;6469;50.796;8.986;2022-11-15T13:45:31;4.53;;;1.73;;
12808;SDS011;6469;50.796;8.986;2022-11-15T13:55:31;6.43;;;1.93;;
12808;SDS011;6469;50.796;8.986;2022-11-15T14:05:35;5.30;;;2.40;;
12808;SDS011;6469;50.796;8.986;2022-11-15T14:15:36;4.80;;;2.10;;
12808;SDS011;6469;50.796;8.986;2022-11-15T14:25:36;4.43;;;1.77;;
12808;SDS011;6469;50.796;8.986;2022-11-15T14:35:37;4.93;;;2.30;;
12808;SDS011;6469;50.796;8.986;2022-11-15T14:45:38;5.40;;;1.80;;
12808;SDS011;6469;50.796;8.986;2022-11-15T14:55:38;3.53;;;1.93;;
12808;SDS011;6469;50.796;8.986;2022-11-15T15:05:40;4.13;;;2.13;;
12808;SDS011;6469;50.796;8.986;2022-11-15T15:15:40;3.60;;;1.83;;
12808;SDS011;6469;50.796;8.986;2022-11-15T15:25:40;5.90;;;1.70;;
12808;SDS011;6469;50.796;8.986;2022-11-15T15:35:41;3.50;;;1.83;;
12808;SDS011;6469;50.796;8.986;2022-11-15T15:45:42;4.07;;;1.80;;
12808;SDS011;6469;50.796;8.986;2022-11-15T15:55:42;7.37;;;1.97;;
12808;SDS011;6469;50.796;8.986;2022-11-15T16:05:42;5.03;;;1.87;;
12808;SDS011;6469;50.796;8.986;2022-11-15T16:15:42;6.13;;;2.53;;
12808;SDS011;6469;50.796;8.986;2022-11-15T16:25:53;7.33;;;2.17;;
12808;SDS011;6469;50.796;8.986;2022-11-15T16:35:55;7.07;;;2.00;;
12808;SDS011;6469;50.796;8.986;2022-11-15T16:45:55;4.83;;;2.30;;
12808;SDS011;6469;50.796;8.986;2022-11-15T16:55:55;7.03;;;2.17;;
12808;SDS011;6469;50.796;8.986;2022-11-15T17:05:56;6.07;;;2.30;;
12808;SDS011;6469;50.796;8.986;2022-11-15T17:16:10;4.47;;;2.53;;
12808;SDS011;6469;50.796;8.986;2022-11-15T17:26:11;10.47;;;3.03;;
12808;SDS011;6469;50.796;8.986;2022-11-15T17:36:12;6.60;;;3.50;;
12808;SDS011;6469;50.796;8.986;2022-11-15T17:46:13;6.80;;;3.10;;
12808;SDS011;6469;50.796;8.986;2022-11-15T17:56:15;6.97;;;3.20;;
12808;SDS011;6469;50.796;8.986;2022-11-15T18:06:15;6.30;;;2.90;;
12808;SDS011;6469;50.796;8.986;2022-11-15T18:16:18;8.03;;;3.10;;
12808;SDS011;6469;50.796;8.986;2022-11-15T18:26:18;10.17;;;2.93;;
12808;SDS011;6469;50.796;8.986;2022-11-15T18:36:22;6.83;;;2.87;;
12808;SDS011;6469;50.796;8.986;2022-11-15T18:46:23;6.40;;;2.60;;
12808;SDS011;6469;50.796;8.986;2022-11-15T18:56:24;5.47;;;2.80;;
12808;SDS011;6469;50.796;8.986;2022-11-15T19:06:25;9.43;;;2.93;;
12808;SDS011;6469;50.796;8.986;2022-11-15T19:16:26;7.23;;;2.50;;
12808;SDS011;6469;50.796;8.986;2022-11-15T19:26:27;11.23;;;3.65;;
12808;SDS011;6469;50.796;8.986;2022-11-15T19:36:28;6.47;;;3.05;;
12808;SDS011;6469;50.796;8.986;2022-11-15T19:46:31;7.80;;;2.50;;
12808;SDS011;6469;50.796;8.986;2022-11-15T19:56:32;5.67;;;2.67;;
12808;SDS011;6469;50.796;8.986;2022-11-15T20:06:34;4.33;;;2.40;;
12808;SDS011;6469;50.796;8.986;2022-11-15T20:16:34;8.80;;;3.00;;
12808;SDS011;6469;50.796;8.986;2022-11-15T20:26:35;7.43;;;2.83;;
12808;SDS011;6469;50.796;8.986;2022-11-15T20:36:35;8.07;;;2.70;;
12808;SDS011;6469;50.796;8.986;2022-11-15T20:46:35;7.00;;;2.57;;
12808;SDS011;6469;50.796;8.986;2022-11-15T20:56:35;6.10;;;2.93;;
12808;SDS011;6469;50.796;8.986;2022-11-15T21:06:35;5.57;;;2.47;;
12808;SDS011;6469;50.796;8.986;2022-11-15T21:16:36;5.07;;;2.80;;
12808;SDS011;6469;50.796;8.986;2022-11-15T21:26:37;4.87;;;2.33;;
12808;SDS011;6469;50.796;8.986;2022-11-15T21:36:37;4.07;;;2.50;;
12808;SDS011;6469;50.796;8.986;2022-11-15T21:46:38;6.23;;;2.60;;
12808;SDS011;6469;50.796;8.986;2022-11-15T21:56:38;3.90;;;2.40;;
12808;SDS011;6469;50.796;8.986;2022-11-15T22:06:38;4.87;;;2.20;;
12808;SDS011;6469;50.796;8.986;2022-11-15T22:16:38;4.67;;;2.10;;
12808;SDS011;6469;50.796;8.986;2022-11-15T22:26:39;6.83;;;2.03;;
12808;SDS011;6469;50.796;8.986;2022-11-15T22:36:39;3.63;;;1.90;;
12808;SDS011;6469;50.796;8.986;2022-11-15T22:46:44;4.37;;;2.30;;
12808;SDS011;6469;50.796;8.986;2022-11-15T22:56:44;4.70;;;2.00;;
12808;SDS011;6469;50.796;8.986;2022-11-15T23:06:44;3.13;;;2.00;;
12808;SDS011;6469;50.796;8.986;2022-11-15T23:16:44;3.00;;;2.03;;
12808;SDS011;6469;50.796;8.986;2022-11-15T23:26:45;4.27;;;2.27;;
12808;SDS011;6469;50.796;8.986;2022-11-15T23:36:46;2.80;;;1.50;;
12808;SDS011;6469;50.796;8.986;2022-11-15T23:46:46;5.13;;;2.30;;
12808;SDS011;6469;50.796;8.986;2022-11-15T23:56:46;4.17;;;1.97;;
